createdAt,value
2019-01-04T00:00:14.278Z,0.00
2019-01-04T00:01:49.501Z,-0.04
2019-01-04T00:03:25.113Z,-0.04
2019-01-04T00:05:00.606Z,-0.06
2019-01-04T00:06:36.512Z,-0.09
2019-01-04T00:08:12.249Z,-0.11
2019-01-04T00:09:48.160Z,-0.11
2019-01-04T00:11:23.963Z,-0.13
2019-01-04T00:13:00.403Z,-0.07
2019-01-04T00:14:36.497Z,-0.13
2019-01-04T00:16:13.094Z,-0.09
2019-01-04T00:17:48.580Z,-0.12
2019-01-04T00:19:26.283Z,-0.13
2019-01-04T00:21:02.357Z,-0.18
2019-01-04T00:22:39.421Z,-0.25
2019-01-04T00:24:17.274Z,-0.30
2019-01-04T00:25:54.166Z,-0.31
2019-01-04T00:27:32.255Z,-0.31
2019-01-04T00:29:07.667Z,-0.31
2019-01-04T00:30:45.293Z,-0.32
2019-01-04T00:32:20.947Z,-0.29
2019-01-04T00:33:59.490Z,-0.24
2019-01-04T00:35:39.883Z,-0.22
2019-01-04T00:37:17.239Z,-0.18
2019-01-04T00:38:57.783Z,-0.12
2019-01-04T00:40:35.830Z,-0.16
2019-01-04T00:42:19.696Z,-0.10
2019-01-04T00:43:57.699Z,-0.10
2019-01-04T00:45:33.968Z,-0.12
2019-01-04T00:47:21.116Z,-0.11
2019-01-04T00:49:00.415Z,-0.16
2019-01-04T00:50:38.431Z,-0.19
2019-01-04T00:52:16.636Z,-0.16
2019-01-04T00:53:53.131Z,-0.18
2019-01-04T00:56:13.981Z,-0.12
2019-01-04T00:58:39.499Z,-0.11
2019-01-04T01:00:51.667Z,-0.13
2019-01-04T01:03:21.329Z,-0.15
2019-01-04T01:05:21.401Z,-0.16
2019-01-04T01:07:30.454Z,-0.14
2019-01-04T01:10:02.855Z,-0.16
2019-01-04T01:12:12.220Z,-0.12
2019-01-04T01:14:59.537Z,-0.10
2019-01-04T01:17:28.362Z,-0.09
2019-01-04T01:19:43.109Z,-0.08
2019-01-04T01:22:04.297Z,-0.09
2019-01-04T01:24:19.315Z,-0.04
2019-01-04T01:26:33.277Z,-0.10
2019-01-04T01:28:51.474Z,-0.10
2019-01-04T01:31:10.123Z,-0.08
2019-01-04T01:33:26.667Z,-0.06
2019-01-04T01:35:33.647Z,-0.10
2019-01-04T01:37:44.625Z,-0.09
2019-01-04T01:39:54.883Z,-0.07
2019-01-04T01:41:56.995Z,-0.10
2019-01-04T01:44:09.645Z,-0.12
2019-01-04T01:46:44.890Z,-0.13
2019-01-04T01:48:39.346Z,-0.13
2019-01-04T01:51:10.785Z,-0.18
2019-01-04T01:52:50.410Z,-0.18
2019-01-04T01:54:25.813Z,-0.20
2019-01-04T01:56:01.086Z,-0.15
2019-01-04T01:57:36.340Z,-0.17
2019-01-04T01:59:11.643Z,-0.13
2019-01-04T02:00:54.698Z,-0.15
2019-01-04T02:02:30.042Z,-0.14
2019-01-04T02:04:07.863Z,-0.09
2019-01-04T02:05:45.776Z,-0.15
2019-01-04T02:07:21.095Z,-0.14
2019-01-04T02:08:56.702Z,-0.17
2019-01-04T02:10:32.124Z,-0.14
2019-01-04T02:12:07.617Z,-0.16
2019-01-04T02:13:46.219Z,-0.07
2019-01-04T02:15:23.405Z,-0.13
2019-01-04T02:17:01.120Z,-0.13
2019-01-04T02:18:40.316Z,-0.12
2019-01-04T02:20:15.531Z,-0.07
2019-01-04T02:21:51.237Z,-0.11
2019-01-04T02:23:29.014Z,-0.14
2019-01-04T02:25:04.259Z,-0.10
2019-01-04T02:26:39.977Z,-0.13
2019-01-04T02:28:15.195Z,-0.13
2019-01-04T02:29:50.931Z,-0.15
2019-01-04T02:31:26.258Z,-0.12
2019-01-04T02:33:01.626Z,-0.19
2019-01-04T02:34:38.077Z,-0.21
2019-01-04T02:36:13.483Z,-0.24
2019-01-04T02:37:50.430Z,-0.28
2019-01-04T02:39:28.323Z,-0.28
2019-01-04T02:41:03.705Z,-0.27
2019-01-04T02:42:38.914Z,-0.27
2019-01-04T02:44:14.212Z,-0.27
2019-01-04T02:45:50.268Z,-0.28
2019-01-04T02:47:25.482Z,-0.25
2019-01-04T02:49:00.773Z,-0.25
2019-01-04T02:50:40.075Z,-0.27
2019-01-04T02:52:19.341Z,-0.25
2019-01-04T02:53:54.607Z,-0.27
2019-01-04T02:55:29.821Z,-0.31
2019-01-04T02:57:05.145Z,-0.33
2019-01-04T02:58:40.405Z,-0.34
2019-01-04T03:00:18.696Z,-0.34
2019-01-04T03:01:53.917Z,-0.34
2019-01-04T03:03:29.188Z,-0.38
2019-01-04T03:05:04.413Z,-0.41
2019-01-04T03:06:40.013Z,-0.42
2019-01-04T03:08:15.719Z,-0.40
2019-01-04T03:09:51.075Z,-0.39
2019-01-04T03:11:26.812Z,-0.37
2019-01-04T03:13:02.207Z,-0.36
2019-01-04T03:14:37.824Z,-0.34
2019-01-04T03:16:13.396Z,-0.32
2019-01-04T03:17:48.809Z,-0.33
2019-01-04T03:19:31.636Z,-0.32
2019-01-04T03:21:14.169Z,-0.32
2019-01-04T03:22:49.412Z,-0.32
2019-01-04T03:24:25.568Z,-0.36
2019-01-04T03:26:00.766Z,-0.38
2019-01-04T03:27:36.145Z,-0.39
2019-01-04T03:29:13.856Z,-0.40
2019-01-04T03:30:49.277Z,-0.40
2019-01-04T03:32:29.036Z,-0.41
2019-01-04T03:34:01.801Z,-0.45
2019-01-04T03:35:37.472Z,-0.45
2019-01-04T03:37:13.280Z,-0.46
2019-01-04T03:38:48.821Z,-0.46
2019-01-04T03:40:24.261Z,-0.49
2019-01-04T03:42:00.294Z,-0.50
2019-01-04T03:43:35.491Z,-0.51
2019-01-04T03:45:10.829Z,-0.55
2019-01-04T03:46:46.350Z,-0.55
2019-01-04T03:48:21.554Z,-0.57
2019-01-04T03:49:56.990Z,-0.60
2019-01-04T03:51:32.313Z,-0.59
2019-01-04T03:53:10.646Z,-0.61
2019-01-04T03:54:46.302Z,-0.63
2019-01-04T03:56:21.486Z,-0.66
2019-01-04T03:57:57.493Z,-0.63
2019-01-04T03:59:32.713Z,-0.62
2019-01-04T04:01:09.084Z,-0.64
2019-01-04T04:02:44.712Z,-0.65
2019-01-04T04:04:20.014Z,-0.61
2019-01-04T04:05:57.003Z,-0.62
2019-01-04T04:07:32.374Z,-0.63
2019-01-04T04:09:08.622Z,-0.63
2019-01-04T04:10:44.306Z,-0.62
2019-01-04T04:12:19.720Z,-0.65
2019-01-04T04:13:55.276Z,-0.64
2019-01-04T04:15:30.624Z,-0.63
2019-01-04T04:17:05.944Z,-0.65
2019-01-04T04:18:41.648Z,-0.64
2019-01-04T04:20:16.886Z,-0.62
2019-01-04T04:21:54.327Z,-0.62
2019-01-04T04:23:29.925Z,-0.61
2019-01-04T04:25:05.279Z,-0.61
2019-01-04T04:26:40.931Z,-0.59
2019-01-04T04:28:17.476Z,-0.62
2019-01-04T04:29:53.499Z,-0.62
2019-01-04T04:31:28.814Z,-0.60
2019-01-04T04:33:04.326Z,-0.57
2019-01-04T04:34:42.739Z,-0.60
2019-01-04T04:36:18.094Z,-0.62
2019-01-04T04:37:53.405Z,-0.61
2019-01-04T04:39:28.815Z,-0.59
2019-01-04T04:41:04.169Z,-0.58
2019-01-04T04:42:39.586Z,-0.58
2019-01-04T04:44:14.875Z,-0.58
2019-01-04T04:45:50.078Z,-0.62
2019-01-04T04:47:25.295Z,-0.64
2019-01-04T04:49:01.079Z,-0.65
2019-01-04T04:50:36.400Z,-0.65
2019-01-04T04:52:11.597Z,-0.66
2019-01-04T04:53:46.918Z,-0.64
2019-01-04T04:55:22.347Z,-0.62
2019-01-04T04:56:57.894Z,-0.63
2019-01-04T04:58:38.791Z,-0.63
2019-01-04T05:00:15.675Z,-0.61
2019-01-04T05:01:51.327Z,-0.58
2019-01-04T05:03:27.704Z,-0.57
2019-01-04T05:05:03.714Z,-0.56
2019-01-04T05:06:40.135Z,-0.53
2019-01-04T05:08:16.003Z,-0.52
2019-01-04T05:09:51.369Z,-0.54
2019-01-04T05:11:27.371Z,-0.54
2019-01-04T05:13:02.575Z,-0.53
2019-01-04T05:14:37.823Z,-0.52
2019-01-04T05:16:16.085Z,-0.53
2019-01-04T05:17:54.334Z,-0.51
2019-01-04T05:19:29.876Z,-0.49
2019-01-04T05:21:05.547Z,-0.52
2019-01-04T05:22:40.785Z,-0.48
2019-01-04T05:24:16.162Z,-0.47
2019-01-04T05:25:51.533Z,-0.47
2019-01-04T05:27:27.097Z,-0.46
2019-01-04T05:29:04.779Z,-0.41
2019-01-04T05:30:40.146Z,-0.40
2019-01-04T05:32:15.355Z,-0.43
2019-01-04T05:33:53.399Z,-0.41
2019-01-04T05:35:35.551Z,-0.41
2019-01-04T05:37:12.888Z,-0.38
2019-01-04T05:38:50.064Z,-0.39
2019-01-04T05:40:25.625Z,-0.43
2019-01-04T05:42:03.158Z,-0.43
2019-01-04T05:43:46.291Z,-0.45
2019-01-04T05:45:22.403Z,-0.47
2019-01-04T05:46:58.139Z,-0.42
2019-01-04T05:48:34.198Z,-0.38
2019-01-04T05:50:11.851Z,-0.32
2019-01-04T05:51:47.298Z,-0.31
2019-01-04T05:53:24.806Z,-0.35
2019-01-04T05:55:01.926Z,-0.37
2019-01-04T05:56:44.676Z,-0.32
2019-01-04T05:58:22.051Z,-0.29
2019-01-04T05:59:57.238Z,-0.36
2019-01-04T06:01:35.642Z,-0.37
2019-01-04T06:03:10.969Z,-0.33
2019-01-04T06:04:48.706Z,-0.26
2019-01-04T06:06:24.107Z,-0.20
2019-01-04T06:08:05.460Z,-0.18
2019-01-04T06:09:47.068Z,-0.21
2019-01-04T06:11:30.694Z,-0.21
2019-01-04T06:13:06.129Z,-0.25
2019-01-04T06:14:41.681Z,-0.26
2019-01-04T06:16:16.974Z,-0.28
2019-01-04T06:17:53.822Z,-0.27
2019-01-04T06:19:31.489Z,-0.23
2019-01-04T06:21:11.590Z,-0.27
2019-01-04T06:22:50.224Z,-0.27
2019-01-04T06:24:28.125Z,-0.27
2019-01-04T06:26:06.787Z,-0.28
2019-01-04T06:27:47.375Z,-0.23
2019-01-04T06:29:24.786Z,-0.25
2019-01-04T06:31:03.123Z,-0.28
2019-01-04T06:32:41.279Z,-0.31
2019-01-04T06:34:18.834Z,-0.29
2019-01-04T06:35:57.175Z,-0.29
2019-01-04T06:37:33.671Z,-0.28
2019-01-04T06:39:11.995Z,-0.27
2019-01-04T06:40:49.827Z,-0.27
2019-01-04T06:42:27.587Z,-0.26
2019-01-04T06:44:04.065Z,-0.23
2019-01-04T06:45:42.331Z,-0.23
2019-01-04T06:47:21.074Z,-0.22
2019-01-04T06:48:56.483Z,-0.20
2019-01-04T06:50:32.166Z,-0.19
2019-01-04T06:52:08.143Z,-0.19
2019-01-04T06:53:43.820Z,-0.20
2019-01-04T06:56:07.610Z,-0.18
2019-01-04T06:57:44.422Z,-0.20
2019-01-04T06:59:26.326Z,-0.18
2019-01-04T07:01:06.408Z,-0.18
2019-01-04T07:02:39.984Z,-0.14
2019-01-04T07:04:15.644Z,-0.18
2019-01-04T07:05:55.920Z,-0.17
2019-01-04T07:07:34.252Z,-0.15
2019-01-04T07:09:09.565Z,-0.18
2019-01-04T07:10:45.888Z,-0.20
2019-01-04T07:12:21.417Z,-0.17
2019-01-04T07:13:57.794Z,-0.17
2019-01-04T07:15:33.475Z,-0.17
2019-01-04T07:17:08.712Z,-0.17
2019-01-04T07:18:44.770Z,-0.19
2019-01-04T07:20:20.524Z,-0.21
2019-01-04T07:21:56.931Z,-0.16
2019-01-04T07:23:32.710Z,-0.17
2019-01-04T07:25:08.962Z,-0.17
2019-01-04T07:26:47.917Z,-0.18
2019-01-04T07:28:24.611Z,-0.17
2019-01-04T07:30:00.240Z,-0.13
2019-01-04T07:31:37.101Z,-0.16
2019-01-04T07:33:14.131Z,-0.16
2019-01-04T07:34:49.843Z,-0.16
2019-01-04T07:36:26.044Z,-0.15
2019-01-04T07:38:03.389Z,-0.12
2019-01-04T07:39:39.454Z,-0.14
2019-01-04T07:41:15.381Z,-0.12
2019-01-04T07:42:51.665Z,-0.16
2019-01-04T07:44:31.826Z,-0.12
2019-01-04T07:46:09.391Z,-0.08
2019-01-04T07:47:44.759Z,-0.07
2019-01-04T07:49:20.042Z,-0.12
2019-01-04T07:50:55.985Z,-0.06
2019-01-04T07:52:32.772Z,-0.11
2019-01-04T07:54:08.843Z,-0.10
2019-01-04T07:55:44.848Z,-0.11
2019-01-04T07:57:20.750Z,-0.10
2019-01-04T07:58:57.208Z,-0.07
2019-01-04T08:00:35.369Z,-0.08
2019-01-04T08:02:39.066Z,-0.07
2019-01-04T08:04:16.258Z,-0.03
2019-01-04T08:05:53.049Z,-0.04
2019-01-04T08:07:28.817Z,-0.05
2019-01-04T08:09:05.248Z,-0.11
2019-01-04T08:10:42.422Z,-0.14
2019-01-04T08:12:17.878Z,-0.16
2019-01-04T08:13:53.252Z,-0.18
2019-01-04T08:15:29.180Z,-0.17
2019-01-04T08:17:04.778Z,-0.16
2019-01-04T08:18:40.149Z,-0.16
2019-01-04T08:20:16.423Z,-0.14
2019-01-04T08:21:52.414Z,-0.11
2019-01-04T08:23:27.968Z,-0.10
2019-01-04T08:25:03.900Z,-0.09
2019-01-04T08:26:39.266Z,-0.08
2019-01-04T08:28:14.882Z,-0.07
2019-01-04T08:29:56.084Z,-0.06
2019-01-04T08:31:33.987Z,-0.06
2019-01-04T08:33:09.519Z,-0.06
2019-01-04T08:34:45.717Z,-0.03
2019-01-04T08:36:21.455Z,-0.03
2019-01-04T08:37:56.755Z,0.00
2019-01-04T08:39:32.308Z,-0.01
2019-01-04T08:41:08.186Z,-0.01
2019-01-04T08:42:45.118Z,0.02
2019-01-04T08:44:23.006Z,0.07
2019-01-04T08:45:59.251Z,0.03
2019-01-04T08:47:35.296Z,0.03
2019-01-04T08:49:13.491Z,0.00
2019-01-04T08:50:55.952Z,-0.01
2019-01-04T08:52:31.043Z,0.02
2019-01-04T08:54:11.968Z,0.06
2019-01-04T08:55:47.711Z,0.04
2019-01-04T08:57:23.478Z,0.04
2019-01-04T08:58:58.949Z,0.07
2019-01-04T09:00:34.609Z,0.04
2019-01-04T09:02:10.321Z,0.06
2019-01-04T09:03:48.348Z,0.07
2019-01-04T09:05:23.822Z,0.08
2019-01-04T09:07:02.487Z,0.10
2019-01-04T09:08:39.444Z,0.09
2019-01-04T09:10:14.799Z,0.07
2019-01-04T09:11:50.184Z,0.09
2019-01-04T09:13:25.616Z,0.08
2019-01-04T09:15:01.155Z,0.11
2019-01-04T09:16:37.840Z,0.10
2019-01-04T09:18:19.581Z,0.09
2019-01-04T09:19:56.434Z,0.08
2019-01-04T09:21:40.292Z,0.04
2019-01-04T09:23:17.045Z,0.07
2019-01-04T09:24:55.289Z,0.05
2019-01-04T09:26:37.386Z,0.04
2019-01-04T09:28:18.162Z,0.05
2019-01-04T09:29:56.446Z,0.04
2019-01-04T09:31:32.081Z,0.05
2019-01-04T09:33:09.790Z,0.08
2019-01-04T09:34:47.026Z,0.05
2019-01-04T09:36:24.227Z,0.08
2019-01-04T09:37:59.554Z,0.03
2019-01-04T09:39:34.923Z,0.00
2019-01-04T09:41:38.847Z,0.02
2019-01-04T09:43:19.386Z,0.04
2019-01-04T09:44:57.246Z,0.02
2019-01-04T09:46:32.628Z,0.03
2019-01-04T09:48:08.196Z,0.08
2019-01-04T09:49:44.224Z,0.14
2019-01-04T09:51:22.770Z,0.12
2019-01-04T09:53:02.467Z,0.13
2019-01-04T09:54:42.315Z,0.14
2019-01-04T09:56:19.228Z,0.20
2019-01-04T09:57:59.325Z,0.22
2019-01-04T09:59:35.356Z,0.24
2019-01-04T10:01:13.090Z,0.25
2019-01-04T10:02:50.431Z,0.24
2019-01-04T10:04:28.675Z,0.21
2019-01-04T10:06:04.499Z,0.22
2019-01-04T10:07:42.932Z,0.22
2019-01-04T10:09:27.432Z,0.25
2019-01-04T10:11:16.653Z,0.26
2019-01-04T10:12:57.776Z,0.27
2019-01-04T10:14:40.639Z,0.29
2019-01-04T10:16:17.538Z,0.34
2019-01-04T10:17:53.212Z,0.28
2019-01-04T10:19:37.324Z,0.32
2019-01-04T10:21:12.926Z,0.34
2019-01-04T10:22:51.596Z,0.32
2019-01-04T10:24:29.713Z,0.31
2019-01-04T10:26:05.429Z,0.27
2019-01-04T10:27:43.376Z,0.28
2019-01-04T10:29:25.438Z,0.23
2019-01-04T10:31:03.628Z,0.25
2019-01-04T10:32:44.712Z,0.27
2019-01-04T10:34:19.885Z,0.30
2019-01-04T10:35:58.947Z,0.32
2019-01-04T10:37:36.811Z,0.35
2019-01-04T10:39:12.893Z,0.36
2019-01-04T10:40:50.724Z,0.36
2019-01-04T10:42:31.585Z,0.31
2019-01-04T10:44:08.116Z,0.30
2019-01-04T10:45:43.882Z,0.27
2019-01-04T10:47:19.259Z,0.28
2019-01-04T10:48:55.184Z,0.29
2019-01-04T10:50:34.636Z,0.30
2019-01-04T10:52:13.258Z,0.32
2019-01-04T10:53:53.671Z,0.38
2019-01-04T10:55:34.058Z,0.46
2019-01-04T10:57:15.149Z,0.58
2019-01-04T10:58:55.286Z,0.59
2019-01-04T11:00:41.110Z,0.55
2019-01-04T11:02:25.091Z,0.63
2019-01-04T11:04:02.735Z,0.69
2019-01-04T11:05:40.143Z,0.72
2019-01-04T11:07:33.625Z,0.70
2019-01-04T11:09:19.708Z,0.67
2019-01-04T11:11:03.370Z,0.63
2019-01-04T11:12:37.409Z,0.64
2019-01-04T11:14:12.792Z,0.64
2019-01-04T11:15:52.051Z,0.62
2019-01-04T11:17:36.592Z,0.61
2019-01-04T11:19:12.731Z,0.62
2019-01-04T11:20:51.124Z,0.60
2019-01-04T11:22:56.643Z,0.60
2019-01-04T11:25:17.192Z,0.62
2019-01-04T11:27:12.392Z,0.61
2019-01-04T11:29:16.302Z,0.60
2019-01-04T11:31:09.474Z,0.60
2019-01-04T11:33:18.134Z,0.61
2019-01-04T11:35:24.736Z,0.61
2019-01-04T11:37:42.883Z,0.63
2019-01-04T11:39:48.511Z,0.61
2019-01-04T11:42:17.613Z,0.63
2019-01-04T11:44:19.990Z,0.66
2019-01-04T11:46:36.004Z,0.66
2019-01-04T11:48:36.001Z,0.69
2019-01-04T11:50:39.239Z,0.73
2019-01-04T11:52:40.833Z,0.71
2019-01-04T11:54:26.469Z,0.70
2019-01-04T11:56:04.977Z,0.70
2019-01-04T11:57:42.867Z,0.65
2019-01-04T11:59:20.559Z,0.64
2019-01-04T12:01:03.679Z,0.61
2019-01-04T12:02:43.555Z,0.62
2019-01-04T12:04:26.434Z,0.63
2019-01-04T12:06:05.461Z,0.64
2019-01-04T12:07:41.240Z,0.65
2019-01-04T12:09:18.503Z,0.65
2019-01-04T12:10:55.998Z,0.67
2019-01-04T12:12:36.739Z,0.68
2019-01-04T12:14:17.424Z,0.71
2019-01-04T12:15:57.954Z,0.75
2019-01-04T12:17:38.307Z,0.70
2019-01-04T12:19:19.781Z,0.70
2019-01-04T12:21:01.591Z,0.74
2019-01-04T12:22:52.375Z,0.79
2019-01-04T12:24:39.956Z,0.83
2019-01-04T12:26:28.871Z,0.84
2019-01-04T12:28:33.359Z,0.89
2019-01-04T12:30:10.153Z,0.86
2019-01-04T12:31:46.669Z,0.87
2019-01-04T12:33:30.964Z,0.86
2019-01-04T12:35:10.561Z,0.86
2019-01-04T12:36:57.460Z,0.87
2019-01-04T12:38:39.617Z,0.86
2019-01-04T12:40:16.015Z,0.82
2019-01-04T12:42:07.337Z,0.83
2019-01-04T12:43:48.302Z,0.85
2019-01-04T12:45:33.082Z,0.81
2019-01-04T12:47:14.531Z,0.84
2019-01-04T12:48:52.337Z,0.81
2019-01-04T12:50:34.364Z,0.81
2019-01-04T12:52:18.985Z,0.78
2019-01-04T12:54:02.568Z,0.79
2019-01-04T12:55:40.082Z,0.77
2019-01-04T12:57:35.352Z,0.75
2019-01-04T12:59:22.287Z,0.71
2019-01-04T13:00:59.211Z,0.74
2019-01-04T13:02:37.076Z,0.79
2019-01-04T13:04:13.416Z,0.87
2019-01-04T13:05:56.787Z,0.93
2019-01-04T13:07:37.204Z,1.04
2019-01-04T13:09:16.969Z,1.01
2019-01-04T13:10:56.600Z,1.00
2019-01-04T13:12:39.128Z,0.95
2019-01-04T13:14:20.649Z,0.91
2019-01-04T13:16:00.824Z,0.89
2019-01-04T13:17:41.458Z,0.89
2019-01-04T13:19:18.711Z,0.88
2019-01-04T13:20:58.251Z,0.91
2019-01-04T13:22:36.528Z,0.92
2019-01-04T13:24:16.578Z,0.87
2019-01-04T13:25:54.220Z,0.83
2019-01-04T13:27:35.791Z,0.84
2019-01-04T13:29:15.861Z,0.84
2019-01-04T13:31:00.063Z,0.85
2019-01-04T13:32:35.583Z,0.84
2019-01-04T13:34:36.578Z,0.85
2019-01-04T13:36:18.490Z,0.86
2019-01-04T13:38:09.276Z,0.89
2019-01-04T13:39:46.235Z,0.88
2019-01-04T13:41:46.608Z,0.88
2019-01-04T13:43:29.961Z,0.87
2019-01-04T13:45:27.057Z,0.83
2019-01-04T13:47:02.906Z,0.82
2019-01-04T13:48:42.389Z,0.84
2019-01-04T13:50:27.763Z,0.85
2019-01-04T13:52:08.368Z,0.83
2019-01-04T13:53:56.513Z,0.82
2019-01-04T13:55:32.338Z,0.83
2019-01-04T13:57:10.186Z,0.81
2019-01-04T13:58:56.087Z,0.82
2019-01-04T14:00:43.017Z,0.80
2019-01-04T14:02:23.696Z,0.82
2019-01-04T14:04:02.411Z,0.79
2019-01-04T14:05:44.070Z,0.81
2019-01-04T14:07:23.194Z,0.83
2019-01-04T14:09:12.088Z,0.82
2019-01-04T14:10:48.848Z,0.81
2019-01-04T14:12:27.249Z,0.80
2019-01-04T14:14:20.665Z,0.80
2019-01-04T14:16:09.338Z,0.81
2019-01-04T14:17:51.010Z,0.80
2019-01-04T14:19:31.938Z,0.83
2019-01-04T14:21:19.594Z,0.84
2019-01-04T14:23:19.419Z,0.82
2019-01-04T14:24:59.963Z,0.82
2019-01-04T14:26:38.066Z,0.80
2019-01-04T14:28:36.730Z,0.83
2019-01-04T14:30:18.404Z,0.81
2019-01-04T14:31:56.653Z,0.80
2019-01-04T14:33:48.286Z,0.78
2019-01-04T14:35:28.089Z,0.75
2019-01-04T14:37:06.766Z,0.70
2019-01-04T14:38:46.132Z,0.66
2019-01-04T14:40:29.417Z,0.66
2019-01-04T14:42:03.315Z,0.67
2019-01-04T14:43:43.997Z,0.65
2019-01-04T14:45:20.191Z,0.64
2019-01-04T14:47:07.608Z,0.68
2019-01-04T14:48:47.518Z,0.70
2019-01-04T14:50:24.238Z,0.69
2019-01-04T14:52:03.616Z,0.70
2019-01-04T14:53:41.332Z,0.68
2019-01-04T14:55:21.770Z,0.66
2019-01-04T14:57:05.179Z,0.68
2019-01-04T14:58:44.588Z,0.67
2019-01-04T15:00:22.125Z,0.67
2019-01-04T15:01:57.536Z,0.69
2019-01-04T15:03:33.362Z,0.67
2019-01-04T15:05:10.367Z,0.67
2019-01-04T15:06:46.802Z,0.67
2019-01-04T15:08:23.358Z,0.65
2019-01-04T15:09:58.893Z,0.67
2019-01-04T15:11:52.914Z,0.68
2019-01-04T15:13:44.537Z,0.68
2019-01-04T15:15:22.009Z,0.68
2019-01-04T15:17:07.759Z,0.68
2019-01-04T15:18:50.860Z,0.69
2019-01-04T15:20:30.756Z,0.68
2019-01-04T15:22:10.823Z,0.68
2019-01-04T15:23:52.493Z,0.67
2019-01-04T15:25:36.121Z,0.69
2019-01-04T15:27:14.785Z,0.68
2019-01-04T15:28:51.202Z,0.69
2019-01-04T15:30:27.276Z,0.70
2019-01-04T15:32:09.688Z,0.70
2019-01-04T15:33:51.219Z,0.71
2019-01-04T15:35:29.059Z,0.71
2019-01-04T15:37:04.382Z,0.70
2019-01-04T15:38:46.427Z,0.72
2019-01-04T15:40:30.524Z,0.72
2019-01-04T15:42:07.673Z,0.70
2019-01-04T15:43:46.502Z,0.71
2019-01-04T15:45:25.101Z,0.72
2019-01-04T15:47:02.102Z,0.71
2019-01-04T15:48:45.907Z,0.72
2019-01-04T15:50:22.518Z,0.75
2019-01-04T15:52:03.366Z,0.75
2019-01-04T15:53:50.002Z,0.75
2019-01-04T15:55:27.126Z,0.76
2019-01-04T15:57:07.497Z,0.75
2019-01-04T15:58:53.094Z,0.74
2019-01-04T16:00:34.785Z,0.76
2019-01-04T16:02:20.889Z,0.75
2019-01-04T16:04:00.139Z,0.74
2019-01-04T16:05:36.157Z,0.77
2019-01-04T16:07:14.848Z,0.73
2019-01-04T16:08:57.955Z,0.73
2019-01-04T16:10:37.941Z,0.74
2019-01-04T16:12:14.835Z,0.74
2019-01-04T16:13:50.614Z,0.73
2019-01-04T16:15:26.414Z,0.72
2019-01-04T16:17:11.944Z,0.73
2019-01-04T16:18:45.003Z,0.70
2019-01-04T16:20:23.326Z,0.72
2019-01-04T16:22:04.563Z,0.71
2019-01-04T16:23:48.735Z,0.71
2019-01-04T16:25:33.222Z,0.72
2019-01-04T16:27:13.735Z,0.71
2019-01-04T16:28:58.722Z,0.70
2019-01-04T16:30:43.617Z,0.68
2019-01-04T16:32:40.187Z,0.67
2019-01-04T16:34:28.168Z,0.68
2019-01-04T16:36:05.732Z,0.65
2019-01-04T16:37:47.588Z,0.65
2019-01-04T16:39:41.775Z,0.65
2019-01-04T16:41:24.214Z,0.66
2019-01-04T16:43:03.955Z,0.66
2019-01-04T16:44:49.565Z,0.63
2019-01-04T16:46:33.493Z,0.61
2019-01-04T16:48:14.909Z,0.61
2019-01-04T16:49:52.569Z,0.62
2019-01-04T16:51:30.212Z,0.61
2019-01-04T16:53:08.461Z,0.60
2019-01-04T16:54:46.999Z,0.59
2019-01-04T16:56:28.068Z,0.61
2019-01-04T16:58:05.433Z,0.61
2019-01-04T16:59:42.762Z,0.59
2019-01-04T17:01:23.569Z,0.60
2019-01-04T17:03:03.029Z,0.61
2019-01-04T17:04:41.398Z,0.61
2019-01-04T17:06:19.230Z,0.63
2019-01-04T17:07:59.384Z,0.60
2019-01-04T17:09:44.514Z,0.62
2019-01-04T17:11:24.221Z,0.60
2019-01-04T17:13:06.133Z,0.58
2019-01-04T17:14:43.557Z,0.59
2019-01-04T17:16:21.105Z,0.60
2019-01-04T17:18:04.625Z,0.60
2019-01-04T17:19:41.032Z,0.60
2019-01-04T17:21:17.150Z,0.61
2019-01-04T17:23:01.515Z,0.63
2019-01-04T17:24:37.388Z,0.61
2019-01-04T17:26:24.455Z,0.62
2019-01-04T17:28:01.180Z,0.61
2019-01-04T17:29:36.983Z,0.63
2019-01-04T17:31:14.271Z,0.62
2019-01-04T17:32:51.215Z,0.62
2019-01-04T17:34:33.607Z,0.61
2019-01-04T17:36:16.117Z,0.62
2019-01-04T17:38:07.738Z,0.63
2019-01-04T17:39:57.244Z,0.65
2019-01-04T17:41:40.354Z,0.65
2019-01-04T17:43:22.317Z,0.65
2019-01-04T17:44:58.761Z,0.65
2019-01-04T17:46:43.224Z,0.65
2019-01-04T17:48:28.368Z,0.67
2019-01-04T17:50:12.224Z,0.65
2019-01-04T17:51:51.256Z,0.66
2019-01-04T17:53:31.068Z,0.67
2019-01-04T17:55:13.091Z,0.67
2019-01-04T17:56:52.282Z,0.66
2019-01-04T17:58:34.976Z,0.65
2019-01-04T18:00:22.350Z,0.62
2019-01-04T18:02:05.796Z,0.62
2019-01-04T18:03:47.404Z,0.64
2019-01-04T18:05:27.402Z,0.67
2019-01-04T18:07:06.613Z,0.66
2019-01-04T18:08:46.026Z,0.63
2019-01-04T18:10:21.354Z,0.62
2019-01-04T18:12:04.993Z,0.57
2019-01-04T18:13:45.183Z,0.58
2019-01-04T18:15:29.420Z,0.54
2019-01-04T18:17:07.372Z,0.51
2019-01-04T18:18:45.980Z,0.50
2019-01-04T18:20:27.724Z,0.52
2019-01-04T18:22:08.030Z,0.54
2019-01-04T18:23:45.437Z,0.55
2019-01-04T18:25:25.758Z,0.57
2019-01-04T18:27:07.972Z,0.57
2019-01-04T18:28:48.034Z,0.58
2019-01-04T18:30:28.183Z,0.58
2019-01-04T18:32:09.398Z,0.59
2019-01-04T18:33:48.483Z,0.62
2019-01-04T18:35:35.768Z,0.64
2019-01-04T18:37:15.740Z,0.64
2019-01-04T18:38:52.211Z,0.65
2019-01-04T18:40:30.268Z,0.66
2019-01-04T18:42:20.080Z,0.66
2019-01-04T18:44:02.465Z,0.67
2019-01-04T18:45:41.953Z,0.69
2019-01-04T18:47:22.351Z,0.68
2019-01-04T18:49:02.273Z,0.69
2019-01-04T18:50:51.319Z,0.69
2019-01-04T18:52:40.485Z,0.68
2019-01-04T18:54:23.579Z,0.68
2019-01-04T18:56:04.294Z,0.69
2019-01-04T18:57:42.322Z,0.67
2019-01-04T18:59:28.840Z,0.64
2019-01-04T19:01:13.693Z,0.66
2019-01-04T19:02:48.813Z,0.67
2019-01-04T19:04:37.130Z,0.65
2019-01-04T19:06:17.912Z,0.66
2019-01-04T19:08:01.696Z,0.68
2019-01-04T19:09:49.986Z,0.66
2019-01-04T19:11:27.025Z,0.68
2019-01-04T19:13:16.206Z,0.67
2019-01-04T19:14:58.789Z,0.69
2019-01-04T19:16:45.864Z,0.72
2019-01-04T19:18:51.172Z,0.74
2019-01-04T19:20:40.348Z,0.76
2019-01-04T19:22:22.562Z,0.76
2019-01-04T19:24:04.411Z,0.77
2019-01-04T19:25:55.373Z,0.76
2019-01-04T19:27:39.189Z,0.77
2019-01-04T19:29:25.398Z,0.78
2019-01-04T19:31:02.816Z,0.78
2019-01-04T19:32:44.227Z,0.80
2019-01-04T19:34:29.055Z,0.82
2019-01-04T19:36:12.610Z,0.81
2019-01-04T19:38:05.367Z,0.81
2019-01-04T19:39:55.706Z,0.81
2019-01-04T19:41:42.247Z,0.82
2019-01-04T19:43:26.581Z,0.82
2019-01-04T19:45:09.261Z,0.84
2019-01-04T19:46:52.920Z,0.84
2019-01-04T19:48:38.123Z,0.83
2019-01-04T19:50:25.382Z,0.83
2019-01-04T19:52:18.262Z,0.84
2019-01-04T19:54:01.606Z,0.83
2019-01-04T19:55:43.495Z,0.85
2019-01-04T19:57:28.468Z,0.86
2019-01-04T19:59:05.807Z,0.86
2019-01-04T20:00:44.113Z,0.81
2019-01-04T20:02:20.434Z,0.81
2019-01-04T20:04:01.623Z,0.83
2019-01-04T20:06:48.430Z,0.82
2019-01-04T20:09:50.416Z,0.78
2019-01-04T20:12:29.818Z,0.76
2019-01-04T20:15:04.202Z,0.71
2019-01-04T20:17:26.127Z,0.67
2019-01-04T20:19:20.680Z,0.65
2019-01-04T20:21:19.828Z,0.61
2019-01-04T20:23:31.445Z,0.63
2019-01-04T20:25:26.727Z,0.62
2019-01-04T20:27:25.835Z,0.59
2019-01-04T20:29:46.087Z,0.61
2019-01-04T20:31:47.387Z,0.59
2019-01-04T20:34:12.647Z,0.62
2019-01-04T20:36:09.310Z,0.60
2019-01-04T20:38:15.371Z,0.57
2019-01-04T20:40:12.115Z,0.56
2019-01-04T20:42:08.213Z,0.58
2019-01-04T20:44:05.904Z,0.58
2019-01-04T20:46:13.929Z,0.58
2019-01-04T20:48:20.076Z,0.58
2019-01-04T20:50:20.029Z,0.58
2019-01-04T20:52:22.081Z,0.59
2019-01-04T20:54:25.310Z,0.56
2019-01-04T20:56:21.105Z,0.56
2019-01-04T20:58:29.741Z,0.56
2019-01-04T21:00:30.823Z,0.57
2019-01-04T21:02:38.240Z,0.57
2019-01-04T21:04:37.713Z,0.59
2019-01-04T21:06:25.752Z,0.60
2019-01-04T21:08:32.736Z,0.56
2019-01-04T21:10:31.311Z,0.56
2019-01-04T21:12:33.977Z,0.55
2019-01-04T21:14:43.537Z,0.56
2019-01-04T21:16:44.231Z,0.57
2019-01-04T21:18:48.123Z,0.55
2019-01-04T21:20:41.635Z,0.54
2019-01-04T21:22:47.066Z,0.54
2019-01-04T21:24:37.619Z,0.54
2019-01-04T21:26:33.659Z,0.54
2019-01-04T21:28:24.962Z,0.56
2019-01-04T21:30:19.221Z,0.55
2019-01-04T21:32:12.461Z,0.55
2019-01-04T21:34:15.145Z,0.56
2019-01-04T21:36:08.054Z,0.55
2019-01-04T21:38:01.012Z,0.56
2019-01-04T21:40:00.490Z,0.57
2019-01-04T21:42:20.264Z,0.58
2019-01-04T21:44:27.444Z,0.58
2019-01-04T21:46:24.476Z,0.56
2019-01-04T21:48:20.744Z,0.57
2019-01-04T21:50:13.287Z,0.58
2019-01-04T21:52:10.595Z,0.60
2019-01-04T21:54:17.284Z,0.59
2019-01-04T21:56:08.004Z,0.59
2019-01-04T21:58:10.343Z,0.57
2019-01-04T22:00:31.089Z,0.59
2019-01-04T22:02:43.213Z,0.59
2019-01-04T22:04:43.275Z,0.60
2019-01-04T22:06:43.367Z,0.62
2019-01-04T22:08:43.140Z,0.64
2019-01-04T22:10:57.413Z,0.63
2019-01-04T22:13:01.055Z,0.61
2019-01-04T22:14:57.923Z,0.60
2019-01-04T22:17:03.410Z,0.64
2019-01-04T22:19:02.514Z,0.64
2019-01-04T22:20:58.876Z,0.65
2019-01-04T22:23:10.901Z,0.67
2019-01-04T22:25:08.704Z,0.68
2019-01-04T22:27:16.695Z,0.69
2019-01-04T22:29:31.097Z,0.72
2019-01-04T22:31:26.320Z,0.73
2019-01-04T22:33:25.670Z,0.75
2019-01-04T22:35:34.946Z,0.77
2019-01-04T22:37:34.016Z,0.80
2019-01-04T22:39:41.734Z,0.83